Arsenal, Utah
Current Conditions -  °F | °C
As of 5:58 PM on Monday 26 Jan 2015 (Local Time) from KHIF Reporting Station
Clear Clear  
Wind Chill: 38°   Ceiling: Unl
Heat Index: 41°   Visibility: 10mi
Dew Point: 29°   Wind: 5mph
Humidity: 62%   Direction: 300°WNW
Pressure: 30.21"   Gusts: NA
Location:  41.123°N, 112.063°W
Report Text: KHIF 270058Z AUTO 30004KT 10SM CLR 05/M02 A3021 RMK AO2 SLP232 T00501018
Loading
Personal Weather Stations






























Interactive Weather Map New forecast layout! Learn more

10-Day Weather Forecast

Advertisements
Track Severe Weather on mobile